Time;durP1;ratioP1;P1;durP2;ratioP2;P2;SDS_P1;SDS_P2;PMS_P1;PMS_P2;Temp;Humidity;BMP_temperature;BMP_pressure;BME280_temperature;BME280_humidity;BME280_pressure;Samples;Min_cycle;Max_cycle;Signal;HPM_P1;HPM_P2
2023/05/04 00:00:10;;;;;;;14.00;8.38;;;;;;;8.87;69.71;102565.59;6048231;19;20035;-70
2023/05/04 00:02:15;;;;;;;17.42;8.38;;;;;;;8.78;70.27;102564.78;6049925;19;20029;-69
2023/05/04 00:04:21;;;;;;;16.63;8.50;;;;;;;8.83;69.80;102563.88;6049774;19;20006;-70
2023/05/04 00:06:30;;;;;;;14.27;7.93;;;;;;;8.71;70.40;102557.81;6048119;19;20253;-69
2023/05/04 00:08:38;;;;;;;18.13;9.48;;;;;;;8.73;70.27;102553.44;6049515;19;20292;-69
2023/05/04 00:10:43;;;;;;;14.48;8.63;;;;;;;8.72;70.45;102553.47;6049789;19;20192;-69
2023/05/04 00:12:48;;;;;;;15.93;8.88;;;;;;;8.67;70.36;102552.63;6049627;19;20335;-68
2023/05/04 00:14:54;;;;;;;16.83;9.20;;;;;;;8.65;70.72;102552.63;6051001;19;20469;-70
2023/05/04 00:17:00;;;;;;;18.30;9.25;;;;;;;8.65;70.81;102550.00;6051334;19;20015;-70
2023/05/04 00:19:06;;;;;;;20.35;8.75;;;;;;;8.65;70.62;102551.75;6053991;19;20622;-69
2023/05/04 00:21:13;;;;;;;18.83;9.38;;;;;;;8.62;70.87;102546.53;6054144;19;20002;-69
2023/05/04 00:23:18;;;;;;;18.48;8.18;;;;;;;8.53;71.21;102548.31;6050801;19;20501;-70
2023/05/04 00:25:26;;;;;;;16.77;9.30;;;;;;;8.53;71.27;102544.81;6051504;19;20867;-69
2023/05/04 00:27:31;;;;;;;16.73;9.68;;;;;;;8.52;71.11;102543.06;6053950;19;20280;-69
2023/05/04 00:29:37;;;;;;;17.80;9.15;;;;;;;8.49;71.18;102553.56;6053076;19;20410;-70
2023/05/04 00:31:42;;;;;;;16.52;9.00;;;;;;;8.44;71.46;102542.25;6048508;19;20007;-69
2023/05/04 00:33:47;;;;;;;16.88;9.52;;;;;;;8.47;71.80;102547.47;6052782;19;20463;-70
2023/05/04 00:35:53;;;;;;;18.85;9.13;;;;;;;8.42;71.92;102541.38;6053753;19;20423;-70
2023/05/04 00:37:58;;;;;;;15.32;8.48;;;;;;;8.33;71.98;102545.72;6055721;19;20026;-70
2023/05/04 00:40:03;;;;;;;17.33;8.25;;;;;;;8.30;72.27;102550.13;6048432;19;20527;-70
2023/05/04 00:42:11;;;;;;;17.98;9.30;;;;;;;8.25;72.35;102542.28;6049650;19;20476;-70
2023/05/04 00:44:16;;;;;;;17.42;9.75;;;;;;;8.31;72.49;102541.38;6051594;19;20342;-70
2023/05/04 00:46:22;;;;;;;20.90;10.20;;;;;;;8.29;72.20;102538.78;6044078;19;20040;-69
2023/05/04 00:48:27;;;;;;;20.50;10.20;;;;;;;8.33;72.24;102539.63;6049082;19;20425;-69
2023/05/04 00:50:33;;;;;;;15.80;9.05;;;;;;;8.27;72.51;102531.81;6047461;19;20263;-69
2023/05/04 00:52:43;;;;;;;16.15;9.75;;;;;;;8.13;73.02;102537.06;6043003;19;20045;-70
2023/05/04 00:54:49;;;;;;;15.82;9.25;;;;;;;8.22;72.53;102525.72;6047181;19;20007;-69
2023/05/04 00:56:55;;;;;;;16.10;8.63;;;;;;;8.20;72.80;102532.69;6049785;19;20023;-69
2023/05/04 00:59:03;;;;;;;20.13;10.07;;;;;;;8.18;72.80;102529.22;6048577;19;20006;-69
2023/05/04 01:01:08;;;;;;;19.48;9.30;;;;;;;8.12;72.99;102523.09;6049581;19;20739;-69
2023/05/04 01:03:13;;;;;;;16.48;9.38;;;;;;;8.11;72.92;102525.75;6063529;19;20401;-70
2023/05/04 01:05:18;;;;;;;19.90;9.80;;;;;;;8.12;73.12;102524.88;6051664;19;20558;-70
2023/05/04 01:07:32;;;;;;;18.00;8.85;;;;;;;8.10;73.13;102516.13;6048957;19;20423;-69
2023/05/04 01:09:41;;;;;;;19.52;9.48;;;;;;;8.01;73.43;102511.81;6043440;19;20407;-69
2023/05/04 01:11:55;;;;;;;18.40;9.65;;;;;;;7.99;73.86;102515.31;6039068;19;20022;-69
2023/05/04 01:14:04;;;;;;;18.27;9.80;;;;;;;7.93;73.93;102516.19;6045448;19;20691;-69
2023/05/04 01:16:09;;;;;;;16.48;9.50;;;;;;;7.96;73.82;102502.22;6047991;19;20053;-69
2023/05/04 01:18:15;;;;;;;17.92;9.77;;;;;;;7.98;73.80;102503.06;6049742;19;20561;-69
2023/05/04 01:20:21;;;;;;;17.95;9.85;;;;;;;7.89;74.24;102502.22;6051627;19;20690;-70
2023/05/04 01:22:28;;;;;;;17.55;9.52;;;;;;;7.83;74.07;102490.91;6048011;19;20432;-70
2023/05/04 01:24:35;;;;;;;21.00;10.88;;;;;;;7.82;74.44;102500.53;6046111;19;20312;-70
2023/05/04 01:26:43;;;;;;;18.90;10.32;;;;;;;7.79;74.49;102497.03;6053410;19;20327;-69
2023/05/04 01:28:53;;;;;;;18.58;9.35;;;;;;;7.83;74.45;102494.41;6047457;19;20689;-70
2023/05/04 01:31:01;;;;;;;21.63;10.52;;;;;;;7.76;74.74;102483.94;6052807;19;20380;-70
2023/05/04 01:33:07;;;;;;;18.85;11.40;;;;;;;7.79;74.22;102479.56;6052356;19;20469;-70
2023/05/04 01:35:13;;;;;;;21.05;9.73;;;;;;;7.73;74.76;102483.97;6048863;19;20631;-69
2023/05/04 01:37:18;;;;;;;19.13;10.52;;;;;;;7.79;74.73;102483.94;6052599;19;20211;-70
2023/05/04 01:39:26;;;;;;;19.70;10.07;;;;;;;7.77;74.70;102489.19;6052449;19;20020;-70
2023/05/04 01:41:31;;;;;;;22.33;10.82;;;;;;;7.73;74.77;102483.97;6052895;19;20805;-70
2023/05/04 01:43:37;;;;;;;18.85;10.85;;;;;;;7.66;74.68;102489.22;6052309;19;20153;-70
2023/05/04 01:45:42;;;;;;;20.52;10.75;;;;;;;7.66;74.58;102490.94;6051528;19;20022;-70
2023/05/04 01:47:47;;;;;;;20.92;11.13;;;;;;;7.67;74.91;102495.31;6051619;19;20007;-69
2023/05/04 01:49:52;;;;;;;20.50;10.68;;;;;;;7.64;75.10;102492.72;6050569;19;20536;-69
2023/05/04 01:51:57;;;;;;;20.70;11.00;;;;;;;7.64;74.81;102490.97;6056612;19;20006;-69
2023/05/04 01:54:04;;;;;;;19.63;10.93;;;;;;;7.56;74.86;102495.34;6047886;19;20010;-69
2023/05/04 01:56:12;;;;;;;24.73;11.23;;;;;;;7.55;75.25;102495.31;6055594;19;20402;-69
2023/05/04 01:58:18;;;;;;;23.55;9.88;;;;;;;7.56;74.92;102486.63;6053022;19;20029;-70
2023/05/04 02:00:23;;;;;;;17.05;8.80;;;;;;;7.59;74.75;102478.75;6054312;19;20409;-70
2023/05/04 02:02:28;;;;;;;21.60;10.65;;;;;;;7.53;75.24;102481.38;6048514;19;20512;-70
2023/05/04 02:04:34;;;;;;;19.65;10.35;;;;;;;7.46;75.36;102472.69;6048146;19;20296;-70
2023/05/04 02:06:43;;;;;;;24.05;10.45;;;;;;;7.46;75.40;102477.91;6049924;19;20146;-69
2023/05/04 02:08:48;;;;;;;19.73;10.35;;;;;;;7.44;75.89;102479.66;6052864;19;20114;-70
2023/05/04 02:10:53;;;;;;;19.38;11.25;;;;;;;7.48;75.79;102478.78;6051941;19;20052;-70
2023/05/04 02:13:01;;;;;;;19.10;10.35;;;;;;;7.48;75.45;102478.78;6052689;19;20236;-70
2023/05/04 02:15:07;;;;;;;20.70;11.60;;;;;;;7.48;75.81;102477.03;6053332;19;20047;-70
2023/05/04 02:17:12;;;;;;;21.23;10.95;;;;;;;7.48;75.56;102470.94;6050860;19;20499;-70
2023/05/04 02:19:17;;;;;;;22.63;11.38;;;;;;;7.43;75.93;102464.84;6060303;19;20483;-69
2023/05/04 02:21:22;;;;;;;21.45;10.27;;;;;;;7.45;75.89;102463.97;6059864;19;20372;-70
2023/05/04 02:23:28;;;;;;;21.35;10.00;;;;;;;7.45;75.99;102468.28;6058719;19;20363;-68
2023/05/04 02:25:33;;;;;;;17.85;9.50;;;;;;;7.44;75.37;102467.44;6055305;19;20007;-70
2023/05/04 02:27:41;;;;;;;21.23;10.73;;;;;;;7.35;75.94;102466.59;6057792;19;20026;-70
2023/05/04 02:29:49;;;;;;;20.50;10.77;;;;;;;7.37;76.18;102465.72;6056019;19;20389;-69
2023/05/04 02:31:55;;;;;;;25.60;11.18;;;;;;;7.39;76.00;102465.69;6056781;19;20607;-70
2023/05/04 02:34:00;;;;;;;22.60;11.32;;;;;;;7.29;75.96;102459.59;6056975;19;20048;-71
2023/05/04 02:36:07;;;;;;;26.50;10.88;;;;;;;7.37;75.98;102463.09;6052073;19;20317;-70
2023/05/04 02:38:12;;;;;;;24.45;10.82;;;;;;;7.40;76.19;102451.78;6055282;19;20011;-70
2023/05/04 02:40:17;;;;;;;20.38;11.95;;;;;;;7.38;76.06;102450.91;6056760;19;20034;-69
2023/05/04 02:42:23;;;;;;;21.20;10.70;;;;;;;7.41;75.96;102456.97;6056645;19;20459;-68
2023/05/04 02:44:28;;;;;;;24.83;10.82;;;;;;;7.38;76.04;102448.28;6055857;19;20468;-68
2023/05/04 02:46:37;;;;;;;21.95;10.73;;;;;;;7.34;76.19;102441.28;6052633;19;20291;-68
2023/05/04 02:48:42;;;;;;;25.48;11.68;;;;;;;7.39;76.10;102443.03;6057986;19;20007;-68
2023/05/04 02:50:48;;;;;;;22.40;10.85;;;;;;;7.28;76.30;102436.94;6054030;19;20495;-68
2023/05/04 02:52:53;;;;;;;26.15;10.73;;;;;;;7.31;76.39;102442.16;6054882;19;20448;-68
2023/05/04 02:54:58;;;;;;;21.08;11.63;;;;;;;7.29;76.39;102438.69;6053926;19;20397;-70
2023/05/04 02:57:05;;;;;;;20.42;10.35;;;;;;;7.26;76.23;102441.31;6054841;19;20430;-68
2023/05/04 02:59:10;;;;;;;25.98;10.68;;;;;;;7.26;76.76;102436.06;6051774;19;20685;-71
2023/05/04 03:01:15;;;;;;;22.65;10.68;;;;;;;7.20;76.44;102442.19;6046676;19;20539;-71
2023/05/04 03:03:24;;;;;;;28.02;12.48;;;;;;;7.21;76.94;102435.19;6053588;19;20257;-69
2023/05/04 03:05:30;;;;;;;23.52;10.65;;;;;;;7.21;76.72;102440.44;6051618;19;20006;-71
2023/05/04 03:07:35;;;;;;;26.30;10.57;;;;;;;7.17;77.01;102443.94;6052829;19;20262;-71
2023/05/04 03:09:41;;;;;;;27.48;11.75;;;;;;;7.13;77.22;102445.66;6048479;19;20040;-70
2023/05/04 03:11:48;;;;;;;25.48;11.18;;;;;;;7.18;77.18;102441.31;6052932;19;20448;-71
2023/05/04 03:13:53;;;;;;;27.23;11.00;;;;;;;7.18;77.23;102440.44;6054931;19;20428;-70
2023/05/04 03:15:59;;;;;;;29.10;11.73;;;;;;;7.06;77.30;102430.88;6050502;19;20826;-71
2023/05/04 03:18:04;;;;;;;28.77;12.32;;;;;;;7.04;77.56;102435.22;6047934;19;20219;-71
2023/05/04 03:20:14;;;;;;;24.27;10.43;;;;;;;7.00;77.91;102436.09;6051216;19;20665;-70
2023/05/04 03:22:22;;;;;;;24.80;10.07;;;;;;;7.02;77.70;102429.13;6049439;19;20740;-71
2023/05/04 03:24:28;;;;;;;23.80;11.05;;;;;;;6.92;78.23;102424.75;6049666;19;20017;-70
2023/05/04 03:26:34;;;;;;;25.25;12.20;;;;;;;6.94;78.27;102429.13;6048433;19;20253;-70
2023/05/04 03:28:42;;;;;;;25.38;11.55;;;;;;;7.02;77.84;102432.59;6045313;19;20006;-70
2023/05/04 03:30:47;;;;;;;25.33;10.88;;;;;;;6.95;78.20;102429.97;6050925;19;20500;-69
2023/05/04 03:32:52;;;;;;;24.23;11.98;;;;;;;6.93;78.12;102431.75;6054380;19;20018;-70
2023/05/04 03:34:57;;;;;;;24.08;10.98;;;;;;;6.95;78.12;102430.88;6054025;19;20405;-70
2023/05/04 03:37:08;;;;;;;25.05;11.63;;;;;;;6.89;78.33;102433.47;6054560;19;20345;-70
2023/05/04 03:39:13;;;;;;;24.48;11.45;;;;;;;6.87;78.82;102437.81;6045757;19;20413;-70
2023/05/04 03:41:19;;;;;;;26.42;12.73;;;;;;;6.89;78.59;102436.09;6047700;19;20007;-70
2023/05/04 03:43:29;;;;;;;22.90;10.63;;;;;;;6.85;78.55;102439.59;6044062;19;20531;-70
2023/05/04 03:45:34;;;;;;;27.10;11.48;;;;;;;6.84;78.55;102435.22;6052589;19;20036;-70
2023/05/04 03:47:40;;;;;;;27.83;11.02;;;;;;;6.83;78.54;102430.88;6043897;19;20043;-70
2023/05/04 03:49:46;;;;;;;24.17;11.23;;;;;;;6.80;79.15;102430.88;6045387;19;20015;-70
2023/05/04 03:51:52;;;;;;;24.83;10.68;;;;;;;6.78;78.86;102424.75;6048689;19;20006;-70
2023/05/04 03:54:00;;;;;;;27.83;11.82;;;;;;;6.77;79.21;102420.44;6047310;19;20221;-70
2023/05/04 03:56:06;;;;;;;25.55;11.88;;;;;;;6.75;78.90;102416.94;6038675;19;20319;-70
2023/05/04 03:58:11;;;;;;;22.20;10.23;;;;;;;6.72;79.22;102412.56;6041642;19;20518;-71
2023/05/04 04:00:18;;;;;;;26.83;12.07;;;;;;;6.75;79.30;102406.47;6036018;19;20598;-70
2023/05/04 04:02:23;;;;;;;23.00;10.73;;;;;;;6.68;79.44;102407.34;6046962;19;20371;-70
2023/05/04 04:04:28;;;;;;;24.63;10.98;;;;;;;6.70;79.45;102406.47;6045436;19;20393;-70
2023/05/04 04:06:34;;;;;;;25.45;11.30;;;;;;;6.58;79.71;102402.13;6046707;19;20646;-70
2023/05/04 04:08:41;;;;;;;26.48;12.20;;;;;;;6.61;79.96;102401.25;6047363;19;20493;-70
2023/05/04 04:10:49;;;;;;;27.38;11.23;;;;;;;6.67;79.65;102408.22;6044299;19;21124;-70
2023/05/04 04:12:58;;;;;;;27.65;11.40;;;;;;;6.65;79.58;102399.50;6051429;19;20442;-68
2023/05/04 04:15:04;;;;;;;28.13;12.20;;;;;;;6.58;79.50;102402.13;6052250;19;20504;-71
2023/05/04 04:17:10;;;;;;;28.88;11.95;;;;;;;6.63;79.35;102402.09;6052441;19;20162;-70
2023/05/04 04:19:16;;;;;;;27.77;11.85;;;;;;;6.58;79.73;102396.91;6047869;19;20014;-70
2023/05/04 04:21:21;;;;;;;25.90;11.32;;;;;;;6.64;79.81;102397.78;6059759;19;20558;-70
2023/05/04 04:23:29;;;;;;;28.38;11.88;;;;;;;6.55;80.00;102391.63;6050251;19;20480;-71
2023/05/04 04:25:36;;;;;;;28.77;11.60;;;;;;;6.49;80.07;102386.41;6049741;19;20308;-69
2023/05/04 04:27:50;;;;;;;27.23;12.15;;;;;;;6.47;80.36;102390.75;6050384;19;20375;-69
2023/05/04 04:29:57;;;;;;;25.73;10.13;;;;;;;6.53;80.23;102380.34;6048514;19;20007;-69
2023/05/04 04:32:02;;;;;;;26.00;11.80;;;;;;;6.53;80.07;102384.66;6055326;19;20736;-68
2023/05/04 04:34:07;;;;;;;24.55;11.93;;;;;;;6.49;80.34;102381.19;6053625;19;20325;-68
2023/05/04 04:36:15;;;;;;;24.98;11.10;;;;;;;6.50;80.18;102372.50;6055188;19;20018;-68
2023/05/04 04:38:21;;;;;;;31.67;11.57;;;;;;;6.54;80.59;102384.69;6048958;19;20211;-68
2023/05/04 04:40:26;;;;;;;27.85;11.32;;;;;;;6.53;80.42;102377.72;6051918;19;20530;-68
2023/05/04 04:42:31;;;;;;;29.20;10.90;;;;;;;6.62;80.34;102381.22;6048691;19;20178;-71
2023/05/04 04:44:44;;;;;;;29.73;12.00;;;;;;;6.62;80.05;102378.59;6054035;19;20011;-70
2023/05/04 04:46:52;;;;;;;28.17;11.38;;;;;;;6.59;80.29;102387.31;6050909;19;20641;-69
2023/05/04 04:49:00;;;;;;;27.65;11.50;;;;;;;6.61;80.32;102385.56;6057092;19;20106;-68
2023/05/04 04:51:11;;;;;;;27.20;11.70;;;;;;;6.66;79.93;102380.34;6049701;19;21101;-69
2023/05/04 04:53:16;;;;;;;27.67;11.55;;;;;;;6.70;79.76;102376.88;6043946;19;20301;-69
2023/05/04 04:55:22;;;;;;;29.77;11.80;;;;;;;6.72;79.90;102380.34;6045838;19;20299;-69
2023/05/04 04:57:28;;;;;;;28.98;10.93;;;;;;;6.72;79.45;102383.84;6049310;19;20381;-68
2023/05/04 04:59:36;;;;;;;25.23;11.10;;;;;;;6.75;79.68;102382.97;6048443;19;20297;-69
2023/05/04 05:01:44;;;;;;;28.08;11.82;;;;;;;6.81;79.38;102383.81;6049842;19;20089;-69
2023/05/04 05:03:49;;;;;;;23.70;10.15;;;;;;;6.83;79.19;102386.44;6054144;19;20472;-69
2023/05/04 05:05:54;;;;;;;22.88;11.00;;;;;;;6.84;79.16;102379.47;6047307;19;20289;-69
2023/05/04 05:08:02;;;;;;;24.38;11.68;;;;;;;6.95;78.90;102383.84;6046482;19;20006;-69
2023/05/04 05:10:12;;;;;;;28.90;11.07;;;;;;;6.94;79.24;102376.84;6049268;19;20421;-69
2023/05/04 05:12:17;;;;;;;25.42;11.18;;;;;;;7.02;79.00;102379.47;6051655;19;20120;-68
2023/05/04 05:14:22;;;;;;;25.73;11.00;;;;;;;7.04;78.76;102375.97;6052726;19;20072;-69
2023/05/04 05:16:28;;;;;;;29.35;11.98;;;;;;;7.05;78.73;102379.44;6052524;19;20062;-69
2023/05/04 05:18:37;;;;;;;26.80;11.38;;;;;;;7.11;78.58;102371.63;6050248;19;20446;-69
2023/05/04 05:20:45;;;;;;;26.40;12.40;;;;;;;7.10;78.57;102374.22;6044750;19;20082;-69
2023/05/04 05:22:51;;;;;;;24.80;11.65;;;;;;;7.18;78.33;102375.09;6045546;19;20025;-69
2023/05/04 05:24:55;;;;;;;24.60;11.48;;;;;;;7.24;78.03;102382.91;6048062;19;20694;-69
2023/05/04 05:27:01;;;;;;;24.45;11.80;;;;;;;7.31;77.99;102376.78;6049926;19;20006;-69
2023/05/04 05:29:06;;;;;;;31.75;11.50;;;;;;;7.41;77.60;102373.28;6046890;19;20615;-69
2023/05/04 05:31:12;;;;;;;26.77;11.57;;;;;;;7.53;77.51;102367.16;6045857;19;20250;-70
2023/05/04 05:33:17;;;;;;;31.98;12.23;;;;;;;7.61;76.72;102365.38;6050506;19;20512;-69
2023/05/04 05:35:25;;;;;;;23.77;10.68;;;;;;;7.67;76.78;102361.88;6046648;19;20313;-69
2023/05/04 05:37:31;;;;;;;30.98;12.68;;;;;;;7.70;76.35;102374.94;6049288;19;20384;-69
2023/05/04 05:39:38;;;;;;;27.30;11.73;;;;;;;7.69;76.47;102366.22;6056123;19;20011;-69
2023/05/04 05:41:43;;;;;;;27.20;11.98;;;;;;;7.69;76.29;102373.22;6051999;19;20098;-69
2023/05/04 05:43:48;;;;;;;26.98;11.18;;;;;;;7.75;76.02;102367.06;6054061;19;20211;-70
2023/05/04 05:45:53;;;;;;;28.42;11.77;;;;;;;7.78;75.44;102370.53;6050929;19;20260;-68
2023/05/04 05:47:58;;;;;;;26.67;12.27;;;;;;;7.76;75.72;102368.81;6050071;19;20111;-70
2023/05/04 05:50:05;;;;;;;29.65;12.07;;;;;;;7.89;75.57;102367.88;6044387;19;20663;-69
2023/05/04 05:52:13;;;;;;;25.10;12.40;;;;;;;7.94;75.32;102373.97;6042509;19;20220;-70
2023/05/04 05:54:18;;;;;;;29.20;12.73;;;;;;;7.94;75.08;102373.09;6044655;19;20020;-70
2023/05/04 05:56:23;;;;;;;30.55;13.05;;;;;;;8.01;75.01;102370.44;6045150;19;20533;-70
2023/05/04 05:58:28;;;;;;;29.63;12.82;;;;;;;8.09;74.31;102365.16;6042391;19;20017;-70
2023/05/04 06:00:34;;;;;;;29.85;13.07;;;;;;;8.06;74.59;102366.06;6042482;19;20483;-70
2023/05/04 06:02:42;;;;;;;31.35;12.88;;;;;;;8.13;74.25;102362.50;6054264;19;20653;-70
2023/05/04 06:04:48;;;;;;;26.42;11.30;;;;;;;8.26;73.66;102358.06;6045949;19;20288;-69
2023/05/04 06:06:54;;;;;;;34.45;13.13;;;;;;;8.29;73.99;102346.69;6054178;19;20440;-70
2023/05/04 06:09:01;;;;;;;31.90;12.00;;;;;;;8.36;73.88;102351.88;6048530;19;20388;-70
2023/05/04 06:11:07;;;;;;;27.60;12.13;;;;;;;8.47;73.19;102354.44;6050383;19;20230;-70
2023/05/04 06:13:12;;;;;;;31.60;11.43;;;;;;;8.55;72.86;102359.63;6050152;19;20015;-70
2023/05/04 06:15:19;;;;;;;26.88;11.70;;;;;;;8.69;72.11;102351.66;6052528;19;20316;-70
2023/05/04 06:17:27;;;;;;;30.35;12.48;;;;;;;8.64;71.57;102359.59;6052410;19;20713;-70
2023/05/04 06:19:38;;;;;;;27.23;11.13;;;;;;;8.84;71.16;102358.53;6051119;19;20476;-70
2023/05/04 06:21:45;;;;;;;35.45;12.73;;;;;;;9.13;70.81;102355.63;6046306;19;20178;-70
2023/05/04 06:23:50;;;;;;;27.40;11.52;;;;;;;9.44;70.50;102351.78;6051302;19;20213;-70
2023/05/04 06:25:58;;;;;;;22.77;11.48;;;;;;;9.46;69.24;102357.03;6049875;19;20117;-70
2023/05/04 06:28:04;;;;;;;32.85;13.32;;;;;;;9.61;69.01;102348.97;6048658;19;20417;-71
2023/05/04 06:30:14;;;;;;;26.83;11.70;;;;;;;9.81;68.27;102345.22;6051055;19;20006;-70
2023/05/04 06:32:19;;;;;;;31.15;11.95;;;;;;;10.03;67.35;102337.91;6047780;19;20010;-69
2023/05/04 06:34:28;;;;;;;25.63;12.35;;;;;;;10.28;66.26;102341.94;6052564;19;20007;-71
2023/05/04 06:36:33;;;;;;;32.00;12.60;;;;;;;10.25;65.87;102336.72;6051816;19;20365;-69
2023/05/04 06:38:40;;;;;;;29.90;12.85;;;;;;;10.25;65.53;102341.09;6053902;19;20086;-69
2023/05/04 06:40:45;;;;;;;26.98;12.18;;;;;;;10.24;65.59;102339.34;6052262;19;20071;-69
2023/05/04 06:42:53;;;;;;;28.08;12.60;;;;;;;10.42;65.57;102339.09;6049576;19;20303;-69
2023/05/04 06:44:59;;;;;;;28.88;11.77;;;;;;;10.58;65.40;102330.97;6063828;19;20015;-69
2023/05/04 06:47:06;;;;;;;30.52;13.02;;;;;;;10.47;64.80;102331.16;6057884;19;20276;-69
2023/05/04 06:49:12;;;;;;;23.23;11.02;;;;;;;10.41;65.01;102337.38;6052981;19;20444;-69
2023/05/04 06:51:18;;;;;;;30.23;12.55;;;;;;;10.35;65.13;102331.34;6046890;19;20011;-69
2023/05/04 06:53:23;;;;;;;24.33;12.30;;;;;;;10.47;64.73;102320.63;6047423;19;20027;-69
2023/05/04 06:55:29;;;;;;;28.25;12.68;;;;;;;10.49;64.70;102324.97;6045212;19;20366;-69
2023/05/04 06:57:34;;;;;;;27.90;11.07;;;;;;;10.68;64.51;102320.28;6054291;19;20243;-70
2023/05/04 06:59:45;;;;;;;25.83;11.68;;;;;;;10.81;64.53;102315.69;6048925;19;20454;-69
2023/05/04 07:01:51;;;;;;;26.65;11.18;;;;;;;11.03;63.70;102321.41;6043752;19;20267;-69
2023/05/04 07:03:57;;;;;;;26.98;12.18;;;;;;;11.35;62.99;102310.28;6046698;19;20166;-69
2023/05/04 07:06:04;;;;;;;26.88;11.77;;;;;;;11.35;62.25;102305.00;6046956;19;20058;-69
2023/05/04 07:08:09;;;;;;;26.40;12.10;;;;;;;11.35;62.53;102306.78;6050822;19;20444;-69
2023/05/04 07:10:15;;;;;;;26.50;11.77;;;;;;;11.12;62.95;102312.50;6048295;19;20010;-69
2023/05/04 07:12:21;;;;;;;24.98;11.00;;;;;;;11.20;63.01;102298.28;6052081;19;20493;-70
2023/05/04 07:14:27;;;;;;;28.48;12.73;;;;;;;11.43;62.37;102310.97;6045466;19;20048;-71
2023/05/04 07:16:37;;;;;;;35.28;13.35;;;;;;;11.56;62.15;102297.56;6061325;19;20074;-71
2023/05/04 07:18:43;;;;;;;30.27;12.73;;;;;;;11.59;62.19;102295.72;6051031;19;20081;-72
2023/05/04 07:20:48;;;;;;;30.38;11.82;;;;;;;11.89;61.41;102298.63;6051372;19;20452;-72
2023/05/04 07:22:58;;;;;;;28.00;12.98;;;;;;;11.74;61.85;102299.81;6055350;19;20442;-72
2023/05/04 07:25:04;;;;;;;24.20;11.85;;;;;;;11.85;61.29;102292.53;6060558;19;20053;-72
2023/05/04 07:27:12;;;;;;;26.27;11.75;;;;;;;11.90;60.36;102288.94;6056460;19;21079;-72
2023/05/04 07:29:17;;;;;;;24.58;12.00;;;;;;;11.93;60.54;102292.38;6055822;19;20037;-72
2023/05/04 07:31:23;;;;;;;27.17;12.27;;;;;;;12.03;60.19;102290.38;6060377;19;20614;-72
2023/05/04 07:33:31;;;;;;;29.73;12.50;;;;;;;12.07;59.79;102292.91;6050546;19;20480;-72
2023/05/04 07:35:37;;;;;;;23.40;11.25;;;;;;;12.13;59.92;102291.91;6052235;19;20348;-72
2023/05/04 07:37:42;;;;;;;23.70;12.27;;;;;;;12.17;60.28;102288.31;6053667;19;20459;-72
2023/05/04 07:39:47;;;;;;;24.23;11.90;;;;;;;12.42;59.58;102285.06;6050111;19;20013;-72
2023/05/04 07:41:53;;;;;;;21.88;11.20;;;;;;;12.84;58.61;102279.59;6046956;19;20497;-72
2023/05/04 07:43:59;;;;;;;22.33;11.55;;;;;;;12.87;58.32;102276.84;6044917;19;20023;-72
2023/05/04 07:46:05;;;;;;;26.58;12.88;;;;;;;12.66;58.42;102273.88;6049134;19;20389;-71
2023/05/04 07:48:12;;;;;;;20.90;11.77;;;;;;;12.91;57.97;102275.88;6052905;19;20485;-72
2023/05/04 07:50:21;;;;;;;25.58;12.88;;;;;;;12.74;58.59;102263.13;6050810;19;20363;-71
2023/05/04 07:52:29;;;;;;;22.33;12.10;;;;;;;12.70;59.03;102264.13;6047855;19;20219;-72
2023/05/04 07:54:36;;;;;;;25.70;11.73;;;;;;;12.78;58.33;102256.00;6048094;19;20516;-71
2023/05/04 07:56:44;;;;;;;25.80;12.02;;;;;;;12.85;58.66;102249.63;6045489;19;20643;-72
2023/05/04 07:58:49;;;;;;;23.60;11.68;;;;;;;12.86;58.49;102252.25;6053051;19;20362;-72
2023/05/04 08:00:55;;;;;;;22.88;11.45;;;;;;;13.06;58.07;102251.72;6055091;19;20289;-72
2023/05/04 08:03:00;;;;;;;26.25;11.38;;;;;;;13.04;58.22;102256.16;6046673;19;20014;-71
2023/05/04 08:05:05;;;;;;;24.02;11.23;;;;;;;13.26;57.92;102251.16;6052282;19;20281;-71
2023/05/04 08:07:14;;;;;;;27.75;12.80;;;;;;;13.44;57.64;102260.31;6061971;19;20391;-72
2023/05/04 08:09:19;;;;;;;24.75;11.45;;;;;;;13.47;57.50;102254.94;6055680;19;20191;-72
2023/05/04 08:11:28;;;;;;;23.02;12.15;;;;;;;13.52;56.98;102242.47;6054908;19;20017;-72
2023/05/04 08:13:33;;;;;;;24.90;11.48;;;;;;;13.49;56.91;102245.19;6049968;19;20074;-75
2023/05/04 08:15:41;;;;;;;25.58;11.10;;;;;;;13.84;56.66;102238.81;6055464;19;20104;-74
2023/05/04 08:17:47;;;;;;;26.98;11.60;;;;;;;13.84;56.52;102237.94;6058759;19;20404;-74
2023/05/04 08:19:52;;;;;;;27.88;12.63;;;;;;;14.04;56.23;102237.31;6057409;19;20288;-75
2023/05/04 08:21:58;;;;;;;28.20;12.40;;;;;;;14.18;55.56;102228.94;6051326;19;20662;-75
2023/05/04 08:24:06;;;;;;;23.27;11.18;;;;;;;14.60;55.24;102229.25;6050809;19;20431;-74
2023/05/04 08:26:11;;;;;;;28.88;12.70;;;;;;;14.84;54.16;102229.31;6051063;19;20006;-74
2023/05/04 08:28:17;;;;;;;25.77;11.35;;;;;;;14.49;54.46;102236.69;6053701;19;20335;-73
2023/05/04 08:30:22;;;;;;;30.30;12.93;;;;;;;14.54;54.85;102233.91;6056486;19;20507;-75
2023/05/04 08:32:31;;;;;;;24.33;12.18;;;;;;;14.64;54.34;102224.72;6053873;19;20406;-74
2023/05/04 08:34:38;;;;;;;26.02;12.05;;;;;;;14.84;53.81;102221.38;6052150;19;20696;-74
2023/05/04 08:36:43;;;;;;;25.27;11.38;;;;;;;14.68;54.78;102227.22;6055825;19;20057;-74
2023/05/04 08:38:49;;;;;;;27.67;12.65;;;;;;;14.97;53.29;102216.50;6053612;19;20014;-75
2023/05/04 08:40:57;;;;;;;24.85;11.35;;;;;;;15.15;53.12;102221.09;6053212;19;20586;-75
2023/05/04 08:43:02;;;;;;;24.75;12.05;;;;;;;15.46;51.96;102214.66;6050898;19;20094;-74
2023/05/04 08:45:10;;;;;;;25.45;12.63;;;;;;;15.64;51.68;102210.38;6050922;19;20308;-73
2023/05/04 08:47:15;;;;;;;24.23;10.55;;;;;;;15.57;51.84;102210.63;6046904;19;20515;-74
2023/05/04 08:49:21;;;;;;;22.90;12.20;;;;;;;15.61;52.22;102208.72;6056037;19;20010;-73
2023/05/04 08:51:28;;;;;;;24.85;11.77;;;;;;;15.63;51.86;102196.28;6049136;19;20185;-74
2023/05/04 08:53:34;;;;;;;28.73;12.55;;;;;;;16.07;51.60;102196.28;6048349;19;20221;-74
2023/05/04 08:55:45;;;;;;;24.27;11.80;;;;;;;16.29;50.96;102195.38;6048645;19;20524;-75
2023/05/04 08:57:55;;;;;;;24.67;12.65;;;;;;;16.39;50.26;102197.56;6051339;19;20018;-74
2023/05/04 09:00:04;;;;;;;23.77;12.57;;;;;;;16.80;49.81;102196.72;6050391;19;20349;-75
2023/05/04 09:02:11;;;;;;;27.15;12.25;;;;;;;16.16;49.88;102190.59;6051787;19;20534;-75
2023/05/04 09:04:17;;;;;;;22.90;11.30;;;;;;;16.87;49.44;102182.22;6056010;19;20011;-73
2023/05/04 09:06:22;;;;;;;21.55;11.05;;;;;;;16.88;48.32;102183.97;6053556;19;20515;-74
2023/05/04 09:08:28;;;;;;;20.20;11.18;;;;;;;17.23;48.51;102181.44;6055106;19;20247;-73
2023/05/04 09:10:35;;;;;;;21.70;11.13;;;;;;;17.08;47.67;102181.22;6055791;19;20077;-73
2023/05/04 09:12:41;;;;;;;24.08;11.65;;;;;;;17.00;48.27;102175.41;6051228;19;20493;-74
2023/05/04 09:14:49;;;;;;;24.55;11.23;;;;;;;16.92;48.22;102172.25;6046268;19;20202;-73
2023/05/04 09:16:56;;;;;;;22.30;10.82;;;;;;;17.10;48.09;102187.31;6048790;19;20023;-74
2023/05/04 09:19:01;;;;;;;25.52;12.30;;;;;;;16.81;48.76;102180.69;6053856;19;20014;-74
2023/05/04 09:21:07;;;;;;;30.65;11.73;;;;;;;17.11;48.86;102173.13;6055735;19;20015;-73
2023/05/04 09:23:13;;;;;;;21.63;11.70;;;;;;;16.85;48.42;102176.09;6053750;19;20167;-74
2023/05/04 09:25:18;;;;;;;24.92;11.93;;;;;;;17.14;48.84;102160.63;6051764;19;20259;-74
2023/05/04 09:27:25;;;;;;;24.77;12.73;;;;;;;17.32;48.72;102157.09;6051034;19;20019;-74
2023/05/04 09:29:31;;;;;;;23.38;11.32;;;;;;;17.47;48.41;102155.50;6049368;19;20461;-74
2023/05/04 09:31:47;;;;;;;20.42;11.55;;;;;;;17.76;47.85;102149.59;6050234;19;20263;-74
2023/05/04 09:33:52;;;;;;;23.33;11.52;;;;;;;17.70;48.04;102152.59;6046576;19;20488;-74
2023/05/04 09:35:58;;;;;;;21.95;11.55;;;;;;;17.76;47.69;102154.91;6051124;19;20700;-74
2023/05/04 09:38:06;;;;;;;22.33;11.55;;;;;;;17.66;47.54;102158.97;6053305;19;20048;-74
2023/05/04 09:40:14;;;;;;;23.92;11.45;;;;;;;17.77;47.80;102150.47;6057995;19;20531;-74